Miami, FL

12:47 AM EDT on August 22, 2014 (GMT -0400)
Miami International | Change Station
CLOSE
Current Station
Airport
Location: Miami,
Elevation: 13 ft
Nearby Weather Stations

Elev 13 ft 25.79 °N, 80.32 °W | Updated 54 minutes ago

Scattered Clouds
Scattered Clouds
84 °F
Feels Like 93 °F
N
5
Wind Variable Wind from ESE

Today
High -- | Low -- °F
--% Chance of Precip.
Yesterday
High -- | Low -- °F
Precip. -- in
6:57 AM 7:50 PM
Waning Crescent, 10% visible
Pressure 30.12 in
Visibility 10.0 miles
Clouds Few 2500 ft
Scattered Clouds 25000 ft
Heat Index 93 °F
Dew Point 76 °F
Humidity 76%
Rainfall 0.00 in
Snow Depth Not available.
UV 0 out of 12
Pollen 4.60 out of 12
PM2.5 Moderate
Flu Activity Not available.
METAR KMIA 220353Z 12004KT 10SM FEW025 SCT250 29/24 A3011 RMK AO2 SLP197 T02890244

More Conditions Fewer Conditions

Pressure 30.12 in
Visibility 10.0 miles
Clouds Few 2500 ft
Scattered Clouds 25000 ft
Heat Index 93 °F
Dew Point 76 °F
Humidity 76%
Rainfall 0.00 in
Snow Depth Not available.
UV 0 out of 12
Pollen 4.60 out of 12
PM2.5 Moderate
Flu Activity Not available.
METAR KMIA 220353Z 12004KT 10SM FEW025 SCT250 29/24 A3011 RMK AO2 SLP197 T02890244

More Conditions Fewer Conditions

Nowcast | as of 11:42 PM EDT on August 21, 2014

Showers and thunderstorms continue to move generally from east to west around the Cape Sable area off the coast of Mainland Monroe. These showers are expected to remain around this area this morning. A few lighter showers are also observed over the Atlantic coastal waters. However, periods of showers and thunderstorms are possible this morning over the Atlantic waters, especially for Miami- Dade and Broward.

×

10-Day Weather Forecast

Almanac

Astronomy

Aug. 22, 2014 Rise Set
Actual Time 6:57 AM EDT 7:50 PM EDT
Civil Twilight 6:33 AM EDT 8:14 PM EDT
Nautical Twilight 6:05 AM EDT 8:42 PM EDT
Astronomical Twilight 5:36 AM EDT 9:10 PM EDT
Moon 4:25 AM EDT 5:52 PM EDT
Length of Visible Light 13h 40m
Length of Day
12h 53m
Tomorrow will be 1m 23s shorter.
Waning Crescent, 10% of the Moon is Illuminated
Today
Waning Crescent
Aug 25
New
Sep 2
First Quarter
Sep 8
Full
Sep 15
Last Quarter

Today's Extremes

State Highs State Lows

Community

WunderPhotos

Upload Photos

1,746,130 photos uploaded!

Nearby

Air Quality

  Air Quality AQ Index Pollutant
Yesterday Good
PM2.5
Yesterday Good
OZONE
Current Moderate
PM2.5
Thursday Good
OZONE
Thursday Good
PM2.5
Friday Good
OZONE
Friday Good
PM2.5

Snow Depth

Station Depth Elevation
No new snow has been reported.

Earthquake Activity

City Distance Mag. Time & Date
No recent earthquake activity has been reported nearby.
Minimum magnitude displayed is 2.5.

Coastal Water Temperatures

Place Temperature
Virginia Key, FL 90.0 °F

Nearby Weather Stations